createdAt,value
2017-11-12T00:00:38.426Z,96343.09
2017-11-12T00:02:23.057Z,96324.03
2017-11-12T00:04:00.029Z,96250.95
2017-11-12T00:05:37.794Z,96278.57
2017-11-12T00:07:15.262Z,96278.62
2017-11-12T00:08:52.717Z,96272.05
2017-11-12T00:10:30.056Z,96290.20
2017-11-12T00:12:07.427Z,96286.33
2017-11-12T00:13:44.916Z,96276.40
2017-11-12T00:15:22.287Z,96252.70
2017-11-12T00:17:00.145Z,96262.18
2017-11-12T00:18:36.829Z,96339.16
2017-11-12T00:20:13.582Z,96278.94
2017-11-12T00:21:49.928Z,96352.26
2017-11-12T00:23:26.267Z,96414.26
2017-11-12T00:25:02.916Z,96453.23
2017-11-12T00:26:39.973Z,96485.30
2017-11-12T00:28:19.801Z,96374.34
2017-11-12T00:29:57.429Z,96326.69
2017-11-12T00:31:34.905Z,96331.38
2017-11-12T00:33:11.466Z,96306.37
2017-11-12T00:34:48.061Z,96383.48
2017-11-12T00:36:24.620Z,96341.81
2017-11-12T00:38:01.877Z,96258.37
2017-11-12T00:39:38.543Z,96202.86
2017-11-12T00:41:15.279Z,96243.11
2017-11-12T00:42:52.196Z,96166.93
2017-11-12T00:44:28.546Z,96218.88
2017-11-12T00:46:05.857Z,96389.20
2017-11-12T00:47:42.373Z,96464.53
2017-11-12T00:49:18.638Z,96338.69
2017-11-12T00:50:55.622Z,96314.13
2017-11-12T00:52:32.093Z,96254.81
2017-11-12T00:54:08.791Z,96291.63
2017-11-12T00:55:45.847Z,96402.63
2017-11-12T00:57:23.734Z,96289.41
2017-11-12T00:59:00.154Z,96329.20
2017-11-12T01:00:37.055Z,96191.47
2017-11-12T01:02:13.631Z,96205.39
2017-11-12T01:03:50.459Z,96284.30
2017-11-12T01:05:26.812Z,96254.34
2017-11-12T01:07:03.603Z,96307.13
2017-11-12T01:08:40.295Z,96324.09
2017-11-12T01:10:16.838Z,96366.97
2017-11-12T01:11:53.220Z,96337.05
2017-11-12T01:13:30.583Z,96233.13
2017-11-12T01:15:07.174Z,96217.55
2017-11-12T01:16:44.739Z,96201.05
2017-11-12T01:18:21.126Z,96218.48
2017-11-12T01:19:57.606Z,96310.29
2017-11-12T01:21:35.681Z,96409.00
2017-11-12T01:23:19.780Z,96482.70
2017-11-12T01:24:56.567Z,96368.77
2017-11-12T01:26:32.934Z,96461.51
2017-11-12T01:28:15.989Z,96305.37
2017-11-12T01:29:52.785Z,96175.47
2017-11-12T01:31:29.388Z,96120.13
2017-11-12T01:33:06.766Z,96179.81
2017-11-12T01:34:43.300Z,96251.31
2017-11-12T01:36:21.463Z,96272.53
2017-11-12T01:37:58.151Z,96214.98
2017-11-12T01:39:37.623Z,96177.70
2017-11-12T01:41:13.969Z,96225.81
2017-11-12T01:42:50.528Z,96321.44
2017-11-12T01:44:26.971Z,96277.67
2017-11-12T01:46:03.327Z,96176.27
2017-11-12T01:47:40.615Z,96041.36
2017-11-12T01:49:17.345Z,95975.65
2017-11-12T01:50:53.892Z,95874.83
2017-11-12T01:52:30.462Z,95810.61
2017-11-12T01:54:07.125Z,95803.35
2017-11-12T01:55:44.154Z,95855.04
2017-11-12T01:57:21.073Z,95838.63
2017-11-12T01:58:57.443Z,95851.69
2017-11-12T02:00:34.344Z,95832.55
2017-11-12T02:02:12.185Z,95891.23
2017-11-12T02:03:48.771Z,95928.37
2017-11-12T02:05:25.103Z,96012.55
2017-11-12T02:07:02.590Z,96096.28
2017-11-12T02:08:39.569Z,96086.34
2017-11-12T02:10:16.098Z,96005.56
2017-11-12T02:11:52.515Z,95979.25
2017-11-12T02:13:29.641Z,95941.41
2017-11-12T02:15:07.068Z,95872.77
2017-11-12T02:16:43.714Z,95897.37
2017-11-12T02:18:21.131Z,95811.39
2017-11-12T02:19:57.769Z,95694.03
2017-11-12T02:21:35.014Z,95548.16
2017-11-12T02:23:12.590Z,95457.70
2017-11-12T02:24:52.114Z,95447.44
2017-11-12T02:26:33.821Z,95450.86
2017-11-12T02:28:13.928Z,95476.21
2017-11-12T02:29:52.898Z,95482.76
2017-11-12T02:31:30.395Z,95474.11
2017-11-12T02:33:08.229Z,95449.91
2017-11-12T02:34:45.885Z,95423.27
2017-11-12T02:36:23.288Z,95410.69
2017-11-12T02:38:00.815Z,95409.01
2017-11-12T02:39:39.746Z,95378.78
2017-11-12T02:41:19.381Z,95300.52
2017-11-12T02:42:56.738Z,95278.05
2017-11-12T02:44:33.993Z,95294.09
2017-11-12T02:46:12.480Z,95314.23
2017-11-12T02:47:50.305Z,95265.21
2017-11-12T02:49:28.352Z,95245.81
2017-11-12T02:51:05.094Z,95322.94
2017-11-12T02:52:42.671Z,95455.91
2017-11-12T02:54:19.911Z,95484.50
2017-11-12T02:55:59.099Z,95524.57
2017-11-12T02:57:36.903Z,95574.36
2017-11-12T02:59:14.125Z,95710.40
2017-11-12T03:00:50.956Z,95721.14
2017-11-12T03:02:27.607Z,95838.21
2017-11-12T03:04:04.738Z,95925.36
2017-11-12T03:05:47.826Z,95966.97
2017-11-12T03:07:24.419Z,95970.34
2017-11-12T03:09:00.953Z,96005.08
2017-11-12T03:10:37.933Z,95945.69
2017-11-12T03:12:14.468Z,95862.81
2017-11-12T03:13:51.180Z,95835.62
2017-11-12T03:15:29.839Z,95804.47
2017-11-12T03:17:06.443Z,95835.09
2017-11-12T03:18:43.841Z,95869.64
2017-11-12T03:20:21.735Z,95866.77
2017-11-12T03:21:58.983Z,95836.47
2017-11-12T03:23:35.356Z,95815.78
2017-11-12T03:25:12.028Z,95775.64
2017-11-12T03:26:49.027Z,95704.91
2017-11-12T03:28:25.797Z,95607.75
2017-11-12T03:30:02.637Z,95560.69
2017-11-12T03:31:42.547Z,95527.09
2017-11-12T03:33:22.066Z,95480.59
2017-11-12T03:34:58.889Z,95443.89
2017-11-12T03:36:35.243Z,95497.56
2017-11-12T03:38:11.540Z,95544.79
2017-11-12T03:39:48.260Z,95546.42
2017-11-12T03:41:24.660Z,95577.37
2017-11-12T03:43:01.071Z,95676.38
2017-11-12T03:44:37.478Z,95858.47
2017-11-12T03:46:14.066Z,96014.09
2017-11-12T03:47:51.402Z,96093.22
2017-11-12T03:49:27.778Z,95987.61
2017-11-12T03:51:04.505Z,95866.36
2017-11-12T03:53:49.494Z,95791.51
2017-11-12T03:55:25.949Z,95692.29
2017-11-12T03:57:02.630Z,95636.63
2017-11-12T03:58:39.646Z,95606.84
2017-11-12T04:00:19.181Z,95581.39
2017-11-12T04:01:55.859Z,95547.80
2017-11-12T04:03:32.691Z,95521.50
2017-11-12T04:05:09.588Z,95513.00
2017-11-12T04:06:46.247Z,95524.88
2017-11-12T04:08:22.813Z,95518.08
2017-11-12T04:09:59.449Z,95490.84
2017-11-12T04:11:35.972Z,95436.18
2017-11-12T04:13:13.446Z,95378.48
2017-11-12T04:17:06.530Z,95284.29
2017-11-12T04:18:47.154Z,95274.69
2017-11-12T04:20:23.871Z,95294.04
2017-11-12T04:22:00.844Z,95347.09
2017-11-12T04:23:38.195Z,95380.10
2017-11-12T04:25:15.208Z,95350.84
2017-11-12T04:26:52.145Z,95315.13
2017-11-12T04:28:29.980Z,95284.66
2017-11-12T04:30:05.818Z,95260.92
2017-11-12T04:31:42.347Z,95240.17
2017-11-12T04:33:19.224Z,95260.20
2017-11-12T04:34:55.920Z,95299.20
2017-11-12T04:36:32.356Z,95276.37
2017-11-12T04:40:18.315Z,95203.59
2017-11-12T04:41:54.948Z,95202.87
2017-11-12T04:43:32.453Z,95181.80
2017-11-12T04:45:09.017Z,95144.66
2017-11-12T04:46:46.207Z,95126.70
2017-11-12T04:48:23.101Z,95116.78
2017-11-12T04:49:59.792Z,95087.93
2017-11-12T04:51:37.128Z,95050.19
2017-11-12T04:53:13.514Z,95010.65
2017-11-12T04:54:50.729Z,94993.34
2017-11-12T04:56:27.945Z,94992.92
2017-11-12T04:58:04.628Z,95018.83
2017-11-12T04:59:41.422Z,95067.83
2017-11-12T05:01:17.901Z,95157.18
2017-11-12T05:02:54.535Z,95233.42
2017-11-12T05:04:31.352Z,95252.77
2017-11-12T05:06:09.078Z,95258.83
2017-11-12T05:07:45.438Z,95212.28
2017-11-12T05:09:22.698Z,95187.84
2017-11-12T05:10:59.875Z,95199.87
2017-11-12T05:12:37.078Z,95230.78
2017-11-12T05:14:13.409Z,95289.23
2017-11-12T05:15:51.573Z,95316.03
2017-11-12T05:17:34.517Z,95305.59
2017-11-12T05:19:10.894Z,95204.97
2017-11-12T05:20:47.235Z,95098.23
2017-11-12T05:22:23.928Z,95055.66
2017-11-12T05:24:01.730Z,95067.28
2017-11-12T05:25:38.514Z,95104.41
2017-11-12T05:27:14.923Z,95151.19
2017-11-12T05:28:52.076Z,95250.19
2017-11-12T05:30:29.876Z,95304.48
2017-11-12T05:32:11.976Z,95325.15
2017-11-12T05:33:49.252Z,95300.52
2017-11-12T05:35:26.117Z,95286.30
2017-11-12T05:37:02.913Z,95232.88
2017-11-12T05:38:39.690Z,95201.55
2017-11-12T05:40:16.146Z,95168.45
2017-11-12T05:41:52.738Z,95156.82
2017-11-12T05:43:29.163Z,95125.05
2017-11-12T05:45:06.518Z,95127.95
2017-11-12T05:46:43.389Z,95128.02
2017-11-12T05:48:20.835Z,95184.73
2017-11-12T05:49:57.141Z,95152.92
2017-11-12T05:51:33.625Z,95097.03
2017-11-12T05:53:10.118Z,95122.12
2017-11-12T05:54:48.763Z,95153.08
2017-11-12T05:56:27.513Z,95162.52
2017-11-12T05:58:08.910Z,95155.20
2017-11-12T05:59:47.414Z,95132.28
2017-11-12T06:01:24.532Z,95219.30
2017-11-12T06:03:00.914Z,95323.83
2017-11-12T06:04:37.975Z,95332.80
2017-11-12T06:06:16.196Z,95344.92
2017-11-12T06:07:53.119Z,95328.52
2017-11-12T06:09:29.972Z,95317.77
2017-11-12T06:11:07.147Z,95239.90
2017-11-12T06:12:48.329Z,95133.95
2017-11-12T06:14:27.626Z,95092.30
2017-11-12T06:16:21.839Z,95039.04
2017-11-12T06:17:58.236Z,95016.25
2017-11-12T06:19:34.967Z,94980.08
2017-11-12T06:21:11.282Z,94965.88
2017-11-12T06:22:50.128Z,94953.46
2017-11-12T06:24:29.531Z,94946.58
2017-11-12T06:26:06.249Z,95010.35
2017-11-12T06:27:42.793Z,95079.09
2017-11-12T06:29:20.212Z,95132.34
2017-11-12T06:30:58.017Z,95200.70
2017-11-12T06:32:35.420Z,95225.69
2017-11-12T06:34:12.698Z,95233.06
2017-11-12T06:35:50.057Z,95233.12
2017-11-12T06:37:26.402Z,95160.66
2017-11-12T06:39:04.033Z,95154.45
2017-11-12T06:40:41.747Z,95110.31
2017-11-12T06:42:18.191Z,95045.03
2017-11-12T06:43:55.388Z,95001.25
2017-11-12T06:45:32.570Z,94952.33
2017-11-12T06:47:14.339Z,94925.59
2017-11-12T06:48:50.707Z,94926.17
2017-11-12T06:50:29.002Z,94950.11
2017-11-12T06:52:08.534Z,95016.34
2017-11-12T06:53:44.979Z,95019.78
2017-11-12T06:55:22.022Z,95044.19
2017-11-12T06:57:00.512Z,95054.50
2017-11-12T06:58:39.689Z,95033.98
2017-11-12T07:00:20.598Z,95026.19
2017-11-12T07:01:57.278Z,94995.68
2017-11-12T07:03:33.618Z,94976.30
2017-11-12T07:05:11.033Z,94993.13
2017-11-12T07:06:47.876Z,95009.03
2017-11-12T07:08:24.544Z,95012.51
2017-11-12T07:10:00.864Z,95010.35
2017-11-12T07:11:38.357Z,95017.66
2017-11-12T07:13:15.607Z,95009.45
2017-11-12T07:14:51.956Z,94986.19
2017-11-12T07:16:28.390Z,94979.72
2017-11-12T07:18:04.791Z,94992.23
2017-11-12T07:19:41.190Z,95003.88
2017-11-12T07:21:17.508Z,95016.41
2017-11-12T07:22:54.201Z,95043.77
2017-11-12T07:24:31.417Z,95091.95
2017-11-12T07:26:11.491Z,95131.17
2017-11-12T07:27:50.297Z,95103.09
2017-11-12T07:29:28.594Z,95057.13
2017-11-12T07:31:07.797Z,95027.45
2017-11-12T07:32:47.898Z,95048.09
2017-11-12T07:34:24.340Z,95083.47
2017-11-12T07:36:00.609Z,95098.83
2017-11-12T07:37:37.576Z,95160.09
2017-11-12T07:39:14.360Z,95210.30
2017-11-12T07:40:53.432Z,95232.34
2017-11-12T07:42:29.712Z,95266.69
2017-11-12T07:44:06.345Z,95291.37
2017-11-12T07:45:43.565Z,95295.63
2017-11-12T07:47:19.844Z,95294.31
2017-11-12T07:48:56.370Z,95338.71
2017-11-12T07:50:34.274Z,95404.11
2017-11-12T07:52:11.310Z,95437.37
2017-11-12T07:53:48.687Z,95443.32
2017-11-12T07:55:24.950Z,95437.67
2017-11-12T07:57:01.552Z,95406.27
2017-11-12T07:58:38.627Z,95424.43
2017-11-12T08:00:18.373Z,95430.38
2017-11-12T08:01:56.458Z,95456.77
2017-11-12T08:03:35.398Z,95511.80
2017-11-12T08:05:13.694Z,95572.52
2017-11-12T08:06:51.899Z,95578.23
2017-11-12T08:08:28.389Z,95548.08
2017-11-12T08:10:05.075Z,95520.84
2017-11-12T08:11:41.472Z,95522.10
2017-11-12T08:13:21.187Z,95672.37
2017-11-12T08:14:58.612Z,95803.16
2017-11-12T08:16:36.314Z,95920.59
2017-11-12T08:18:12.929Z,96025.36
2017-11-12T08:19:49.566Z,96156.80
2017-11-12T08:21:26.931Z,96212.24
2017-11-12T08:23:03.489Z,96197.46
2017-11-12T08:24:39.913Z,96044.69
2017-11-12T08:26:17.879Z,95921.08
2017-11-12T08:27:55.994Z,95779.78
2017-11-12T08:29:32.835Z,95720.78
2017-11-12T08:31:09.903Z,95618.94
2017-11-12T08:32:46.303Z,95373.22
2017-11-12T08:34:25.334Z,95283.98
2017-11-12T08:36:02.333Z,95481.42
2017-11-12T08:37:39.168Z,95659.47
2017-11-12T08:39:18.487Z,95669.19
2017-11-12T08:41:00.068Z,95536.57
2017-11-12T08:42:37.601Z,95632.63
2017-11-12T08:44:15.476Z,95770.78
2017-11-12T08:45:52.789Z,95863.71
2017-11-12T08:47:29.964Z,95964.80
2017-11-12T08:49:06.500Z,95979.36
2017-11-12T08:50:44.408Z,95981.59
2017-11-12T08:52:21.766Z,95915.84
2017-11-12T08:53:58.267Z,95774.75
2017-11-12T08:55:35.837Z,95707.67
2017-11-12T08:57:17.057Z,95668.46
2017-11-12T08:58:55.048Z,95846.89
2017-11-12T09:00:37.678Z,95829.61
2017-11-12T09:02:16.113Z,95955.91
2017-11-12T09:03:53.651Z,96127.93
2017-11-12T09:05:30.532Z,96204.20
2017-11-12T09:07:07.157Z,96198.05
2017-11-12T09:08:47.081Z,96309.91
2017-11-12T09:10:24.098Z,96337.14
2017-11-12T09:12:05.829Z,96277.83
2017-11-12T09:13:45.040Z,96239.80
2017-11-12T09:15:22.130Z,96318.63
2017-11-12T09:17:00.081Z,96397.05
2017-11-12T09:18:41.608Z,96364.99
2017-11-12T09:20:17.941Z,96449.91
2017-11-12T09:21:55.712Z,96531.06
2017-11-12T09:23:32.419Z,96545.39
2017-11-12T09:25:10.166Z,96552.31
2017-11-12T09:26:49.273Z,96390.15
2017-11-12T09:28:28.702Z,96421.78
2017-11-12T09:30:05.601Z,96395.83
2017-11-12T09:31:45.472Z,96222.03
2017-11-12T09:33:22.868Z,96102.11
2017-11-12T09:35:03.354Z,96074.09
2017-11-12T09:36:42.276Z,96004.94
2017-11-12T09:38:18.933Z,96208.28
2017-11-12T09:39:55.406Z,96205.63
2017-11-12T09:41:32.797Z,96266.36
2017-11-12T09:43:10.993Z,96473.59
2017-11-12T09:44:47.584Z,96576.70
2017-11-12T09:46:28.494Z,96375.55
2017-11-12T09:48:07.777Z,96319.66
2017-11-12T09:49:44.437Z,96205.63
2017-11-12T09:51:20.844Z,96162.46
2017-11-12T09:53:00.638Z,96246.37
2017-11-12T09:54:37.353Z,96246.79
2017-11-12T09:56:29.271Z,96255.08
2017-11-12T09:58:07.910Z,96488.25
2017-11-12T09:59:45.954Z,96572.06
2017-11-12T10:01:25.850Z,96452.72
2017-11-12T10:03:02.787Z,96387.64
2017-11-12T10:04:39.644Z,96342.27
2017-11-12T10:06:17.780Z,96373.52
2017-11-12T10:07:55.207Z,96566.81
2017-11-12T10:09:40.256Z,96709.63
2017-11-12T10:11:19.261Z,96797.92
2017-11-12T10:12:58.670Z,96840.05
2017-11-12T10:14:36.508Z,96842.84
2017-11-12T10:16:13.064Z,96853.98
2017-11-12T10:17:58.233Z,96838.34
2017-11-12T10:19:37.813Z,96854.03
2017-11-12T10:21:17.349Z,96850.52
2017-11-12T10:22:55.861Z,96887.05
2017-11-12T10:24:34.532Z,96907.52
2017-11-12T10:26:11.523Z,96795.80
2017-11-12T10:27:48.766Z,96638.59
2017-11-12T10:29:26.400Z,96516.27
2017-11-12T10:31:03.198Z,96502.00
2017-11-12T10:32:41.036Z,96602.23
2017-11-12T10:34:17.486Z,96675.53
2017-11-12T10:35:55.810Z,96672.88
2017-11-12T10:37:32.738Z,96573.44
2017-11-12T10:39:09.658Z,96500.88
2017-11-12T10:40:46.868Z,96412.16
2017-11-12T10:42:23.761Z,96123.95
2017-11-12T10:44:00.278Z,96075.90
2017-11-12T10:45:37.617Z,96038.82
2017-11-12T10:47:14.881Z,96025.36
2017-11-12T10:48:53.743Z,96010.28
2017-11-12T10:50:30.299Z,96051.64
2017-11-12T10:52:07.688Z,96107.09
2017-11-12T10:53:44.757Z,96142.59
2017-11-12T10:55:22.123Z,96130.94
2017-11-12T10:56:59.090Z,96179.38
2017-11-12T10:58:37.768Z,96142.98
2017-11-12T11:00:16.373Z,96180.39
2017-11-12T11:01:53.808Z,96255.64
2017-11-12T11:03:30.411Z,96298.61
2017-11-12T11:05:06.845Z,96321.95
2017-11-12T11:06:43.888Z,96268.59
2017-11-12T11:08:20.675Z,96299.09
2017-11-12T11:09:59.705Z,96281.11
2017-11-12T11:11:38.847Z,96282.95
2017-11-12T11:13:18.648Z,96284.75
2017-11-12T11:14:55.745Z,96270.81
2017-11-12T11:16:35.704Z,96227.48
2017-11-12T11:18:12.987Z,96270.81
2017-11-12T11:19:49.772Z,96314.52
2017-11-12T11:21:26.206Z,96243.45
2017-11-12T11:23:03.135Z,96104.08
2017-11-12T11:24:40.216Z,96124.52
2017-11-12T11:26:17.032Z,96274.80
2017-11-12T11:27:54.365Z,96372.30
2017-11-12T11:29:32.042Z,96432.44
2017-11-12T11:31:08.931Z,96392.94
2017-11-12T11:32:45.864Z,96335.43
2017-11-12T11:34:22.292Z,96318.98
2017-11-12T11:35:58.629Z,96240.07
2017-11-12T11:37:35.518Z,96163.00
2017-11-12T11:39:12.182Z,96060.37
2017-11-12T11:40:48.471Z,96011.92
2017-11-12T11:42:25.604Z,96022.34
2017-11-12T11:44:02.415Z,95999.78
2017-11-12T11:45:38.949Z,96047.50
2017-11-12T11:47:15.445Z,96067.78
2017-11-12T11:48:51.947Z,96098.50
2017-11-12T11:50:29.057Z,96116.20
2017-11-12T11:52:06.331Z,96095.44
2017-11-12T11:53:45.679Z,96078.13
2017-11-12T11:55:22.973Z,96069.00
2017-11-12T11:56:59.822Z,96124.43
2017-11-12T11:58:36.444Z,96186.80
2017-11-12T12:00:19.369Z,96268.16
2017-11-12T12:01:57.768Z,96276.97
2017-11-12T12:03:35.796Z,96280.83
2017-11-12T12:05:12.191Z,96403.13
2017-11-12T12:06:48.689Z,96501.47
2017-11-12T12:08:28.390Z,96586.55
2017-11-12T12:10:05.874Z,96532.27
2017-11-12T12:11:42.720Z,96499.34
2017-11-12T12:13:20.152Z,96476.34
2017-11-12T12:14:56.818Z,96490.67
2017-11-12T12:16:34.161Z,96433.02
2017-11-12T12:18:10.632Z,96303.80
2017-11-12T12:19:47.428Z,96419.22
2017-11-12T12:21:24.416Z,96489.83
2017-11-12T12:23:01.416Z,96527.55
2017-11-12T12:24:38.436Z,96541.50
2017-11-12T12:26:15.672Z,96587.45
2017-11-12T12:27:52.508Z,96571.37
2017-11-12T12:29:29.611Z,96550.49
2017-11-12T12:31:06.052Z,96610.41
2017-11-12T12:32:42.805Z,96475.77
2017-11-12T12:34:20.259Z,96329.53
2017-11-12T12:35:56.803Z,96317.34
2017-11-12T12:37:33.208Z,96300.36
2017-11-12T12:39:09.637Z,96239.25
2017-11-12T12:40:46.153Z,96268.22
2017-11-12T12:42:24.939Z,96233.64
2017-11-12T12:44:04.468Z,96155.58
2017-11-12T12:45:41.960Z,96176.84
2017-11-12T12:47:18.355Z,96175.98
2017-11-12T12:48:56.400Z,96149.06
2017-11-12T12:50:32.901Z,96190.71
2017-11-12T12:52:10.186Z,96213.10
2017-11-12T12:53:46.670Z,96190.71
2017-11-12T12:55:23.568Z,96177.26
2017-11-12T12:56:59.879Z,96185.10
2017-11-12T12:58:37.429Z,96112.45
2017-11-12T13:00:16.617Z,96111.50
2017-11-12T13:01:53.468Z,96126.66
2017-11-12T13:03:29.982Z,96182.56
2017-11-12T13:05:07.562Z,96162.46
2017-11-12T13:06:46.882Z,96130.94
2017-11-12T13:08:24.993Z,96148.79
2017-11-12T13:10:01.847Z,96199.84
2017-11-12T13:11:38.434Z,96242.72
2017-11-12T13:13:14.883Z,96251.41
2017-11-12T13:14:52.520Z,96305.55
2017-11-12T13:16:29.450Z,96349.74
2017-11-12T13:18:05.890Z,96401.80
2017-11-12T13:19:42.533Z,96421.28
2017-11-12T13:21:19.112Z,96370.59
2017-11-12T13:22:55.882Z,96396.55
2017-11-12T13:24:33.260Z,96332.36
2017-11-12T13:26:10.025Z,96344.97
2017-11-12T13:27:47.221Z,96410.36
2017-11-12T13:29:23.882Z,96323.64
2017-11-12T13:31:00.416Z,96297.28
2017-11-12T13:32:37.310Z,96277.28
2017-11-12T13:34:14.238Z,96341.58
2017-11-12T13:35:52.065Z,96356.27
2017-11-12T13:37:33.547Z,96343.70
2017-11-12T13:39:10.073Z,96216.23
2017-11-12T13:40:47.047Z,95994.23
2017-11-12T13:42:23.801Z,95833.05
2017-11-12T13:44:00.411Z,95745.84
2017-11-12T13:45:37.004Z,95740.25
2017-11-12T13:47:13.968Z,95689.81
2017-11-12T13:48:51.438Z,95653.10
2017-11-12T13:50:28.805Z,95619.91
2017-11-12T13:52:05.378Z,95558.61
2017-11-12T13:53:43.661Z,95529.26
2017-11-12T13:55:20.171Z,95562.21
2017-11-12T13:56:57.100Z,95522.86
2017-11-12T13:58:33.692Z,95522.86
2017-11-12T14:00:15.386Z,95536.64
2017-11-12T14:01:53.490Z,95495.22
2017-11-12T14:03:30.364Z,95452.94
2017-11-12T14:05:08.661Z,95471.22
2017-11-12T14:07:05.151Z,95494.80
2017-11-12T14:08:53.385Z,95472.42
2017-11-12T14:10:30.072Z,95443.09
2017-11-12T14:12:06.718Z,95450.84
2017-11-12T14:13:44.005Z,95448.98
2017-11-12T14:15:20.736Z,95455.05
2017-11-12T14:16:57.474Z,95431.83
2017-11-12T14:18:34.442Z,95501.17
2017-11-12T14:20:11.416Z,95548.67
2017-11-12T14:21:48.227Z,95602.48
2017-11-12T14:23:25.999Z,95627.52
2017-11-12T14:25:04.213Z,95605.19
2017-11-12T14:26:41.893Z,95607.30
2017-11-12T14:28:25.649Z,95617.55
2017-11-12T14:30:02.513Z,95642.31
2017-11-12T14:31:40.098Z,95669.43
2017-11-12T14:33:16.816Z,95738.45
2017-11-12T14:34:53.274Z,95776.56
2017-11-12T14:36:30.465Z,95771.64
2017-11-12T14:38:07.899Z,95825.59
2017-11-12T14:39:45.322Z,95867.96
2017-11-12T14:41:22.281Z,95824.74
2017-11-12T14:42:59.925Z,95763.03
2017-11-12T14:44:38.680Z,95662.45
2017-11-12T14:46:15.597Z,95710.69
2017-11-12T14:47:52.681Z,95747.48
2017-11-12T14:49:29.698Z,95760.38
2017-11-12T14:51:06.925Z,95692.08
2017-11-12T14:52:44.190Z,95643.00
2017-11-12T14:54:21.078Z,95648.60
2017-11-12T14:55:58.626Z,95637.02
2017-11-12T14:57:36.812Z,95665.05
2017-11-12T14:59:14.207Z,95659.06
2017-11-12T15:00:51.742Z,95663.45
2017-11-12T15:02:29.122Z,95666.78
2017-11-12T15:04:06.106Z,95758.33
2017-11-12T15:05:42.901Z,95781.64
2017-11-12T15:07:19.578Z,95776.41
2017-11-12T15:08:57.255Z,95798.92
2017-11-12T15:10:34.475Z,95766.45
2017-11-12T15:12:11.040Z,95774.61
2017-11-12T15:13:48.234Z,95796.27
2017-11-12T15:15:27.020Z,95829.92
2017-11-12T15:17:04.213Z,95839.01
2017-11-12T15:18:40.897Z,95827.64
2017-11-12T15:20:18.298Z,95863.57
2017-11-12T15:21:55.335Z,95908.16
2017-11-12T15:23:32.366Z,95911.08
2017-11-12T15:25:09.103Z,95902.50
2017-11-12T15:26:45.974Z,95883.78
2017-11-12T15:28:22.549Z,95845.84
2017-11-12T15:29:59.635Z,95807.50
2017-11-12T15:31:36.573Z,95689.97
2017-11-12T15:33:13.512Z,95624.83
2017-11-12T15:34:50.068Z,95617.48
2017-11-12T15:36:27.162Z,95651.66
2017-11-12T15:38:03.563Z,95655.16
2017-11-12T15:39:40.498Z,95652.56
2017-11-12T15:41:16.971Z,95654.62
2017-11-12T15:42:53.531Z,95687.02
2017-11-12T15:44:30.195Z,95695.20
2017-11-12T15:46:06.699Z,95768.63
2017-11-12T15:47:44.815Z,95820.72
2017-11-12T15:49:22.631Z,95832.93
2017-11-12T15:50:59.213Z,95753.46
2017-11-12T15:52:35.871Z,95701.61
2017-11-12T15:54:12.837Z,95655.16
2017-11-12T15:55:50.569Z,95639.94
2017-11-12T15:57:27.290Z,95634.71
2017-11-12T15:59:03.692Z,95624.88
2017-11-12T16:00:41.085Z,95587.80
2017-11-12T16:02:19.027Z,95595.58
2017-11-12T16:03:55.905Z,95652.93
2017-11-12T16:05:32.711Z,95659.39
2017-11-12T16:07:09.655Z,95669.26
2017-11-12T16:08:48.572Z,95672.02
2017-11-12T16:10:34.136Z,95605.02
2017-11-12T16:12:11.309Z,95561.98
2017-11-12T16:13:49.615Z,95520.52
2017-11-12T16:15:28.624Z,95447.60
2017-11-12T16:17:05.773Z,95453.21
2017-11-12T16:18:43.489Z,95456.70
2017-11-12T16:20:24.271Z,95439.49
2017-11-12T16:22:02.573Z,95460.59
2017-11-12T16:23:40.017Z,95490.67
2017-11-12T16:25:17.054Z,95501.45
2017-11-12T16:26:55.004Z,95494.57
2017-11-12T16:28:32.425Z,95493.25
2017-11-12T16:30:08.899Z,95489.94
2017-11-12T16:31:46.683Z,95486.94
2017-11-12T16:33:24.017Z,95514.94
2017-11-12T16:38:34.082Z,95420.91
2017-11-12T16:40:14.583Z,95352.92
2017-11-12T16:41:51.874Z,95346.44
2017-11-12T16:43:31.171Z,95352.14
2017-11-12T16:45:08.632Z,95353.41
2017-11-12T16:46:46.644Z,95397.70
2017-11-12T16:48:26.145Z,95440.33
2017-11-12T16:50:03.053Z,95482.08
2017-11-12T16:51:40.300Z,95536.05
2017-11-12T16:53:17.020Z,95544.19
2017-11-12T16:54:53.700Z,95560.55
2017-11-12T16:56:31.272Z,95563.19
2017-11-12T16:58:07.864Z,95583.05
2017-11-12T16:59:45.564Z,95561.86
2017-11-12T17:01:23.269Z,95579.98
2017-11-12T17:03:02.589Z,95556.70
2017-11-12T17:04:40.647Z,95574.81
2017-11-12T17:06:17.389Z,95588.70
2017-11-12T17:07:54.595Z,95602.06
2017-11-12T17:09:31.120Z,95599.42
2017-11-12T17:11:08.619Z,95614.84
2017-11-12T17:12:46.216Z,95642.95
2017-11-12T17:14:24.485Z,95639.47
2017-11-12T17:16:01.985Z,95619.23
2017-11-12T17:17:39.775Z,95607.18
2017-11-12T17:19:17.113Z,95560.60
2017-11-12T17:20:54.689Z,95508.33
2017-11-12T17:22:32.371Z,95521.84
2017-11-12T17:24:10.822Z,95556.81
2017-11-12T17:25:48.835Z,95594.31
2017-11-12T17:27:26.424Z,95628.67
2017-11-12T17:29:02.970Z,95643.79
2017-11-12T17:30:40.362Z,95674.85
2017-11-12T17:32:23.286Z,95675.81
2017-11-12T17:34:00.586Z,95604.95
2017-11-12T17:35:38.360Z,95585.16
2017-11-12T17:37:15.932Z,95585.69
2017-11-12T17:38:53.273Z,95598.47
2017-11-12T17:40:30.925Z,95568.38
2017-11-12T17:42:07.405Z,95515.83
2017-11-12T17:43:44.346Z,95465.70
2017-11-12T17:45:21.425Z,95420.06
2017-11-12T17:46:59.379Z,95423.97
2017-11-12T17:48:37.441Z,95442.91
2017-11-12T17:50:15.963Z,95383.09
2017-11-12T17:51:52.881Z,95270.25
2017-11-12T17:53:30.050Z,95240.94
2017-11-12T17:55:08.169Z,95271.05
2017-11-12T17:56:46.282Z,95291.27
2017-11-12T17:58:23.914Z,95296.55
2017-11-12T18:00:00.719Z,95291.75
2017-11-12T18:01:38.855Z,95292.65
2017-11-12T18:03:15.924Z,95325.66
2017-11-12T18:04:52.513Z,95359.47
2017-11-12T18:06:29.972Z,95351.24
2017-11-12T18:08:06.761Z,95328.83
2017-11-12T18:09:43.783Z,95371.92
2017-11-12T18:11:20.349Z,95420.13
2017-11-12T18:12:57.171Z,95470.88
2017-11-12T18:14:35.515Z,95457.54
2017-11-12T18:16:14.502Z,95434.63
2017-11-12T18:17:52.621Z,95422.66
2017-11-12T18:19:29.073Z,95419.70
2017-11-12T18:21:05.785Z,95416.64
2017-11-12T18:22:46.100Z,95442.02
2017-11-12T18:24:23.346Z,95452.83
2017-11-12T18:26:00.247Z,95449.41
2017-11-12T18:27:37.029Z,95400.28
2017-11-12T18:29:13.601Z,95364.53
2017-11-12T18:30:50.580Z,95386.09
2017-11-12T18:32:27.943Z,95408.98
2017-11-12T18:34:04.855Z,95473.94
2017-11-12T18:35:43.290Z,95528.30
2017-11-12T18:37:19.889Z,95568.32
2017-11-12T18:38:57.706Z,95603.70
2017-11-12T18:40:34.180Z,95595.88
2017-11-12T18:42:11.262Z,95568.27
2017-11-12T18:43:48.356Z,95504.06
2017-11-12T18:45:26.779Z,95485.14
2017-11-12T18:47:04.432Z,95454.05
2017-11-12T18:48:42.816Z,95426.61
2017-11-12T18:50:19.865Z,95427.39
2017-11-12T18:51:57.517Z,95445.86
2017-11-12T18:53:34.418Z,95467.45
2017-11-12T18:55:11.359Z,95507.91
2017-11-12T18:56:47.976Z,95498.44
2017-11-12T18:58:26.350Z,95493.73
2017-11-12T19:00:03.523Z,95545.13
2017-11-12T19:01:41.407Z,95566.16
2017-11-12T19:03:18.451Z,95585.48
2017-11-12T19:04:55.889Z,95552.37
2017-11-12T19:06:36.766Z,95545.03
2017-11-12T19:08:14.513Z,95557.95
2017-11-12T19:09:52.084Z,95558.74
2017-11-12T19:11:32.709Z,95546.72
2017-11-12T19:13:10.234Z,95525.23
2017-11-12T19:14:47.721Z,95521.75